createdAt,value
2017-08-21T00:01:51.628Z,13.68
2017-08-21T00:04:20.061Z,13.70
2017-08-21T00:06:48.504Z,13.71
2017-08-21T00:09:16.984Z,13.69
2017-08-21T00:11:45.469Z,13.68
2017-08-21T00:14:13.942Z,13.70
2017-08-21T00:16:42.370Z,13.71
2017-08-21T00:19:10.908Z,13.68
2017-08-21T00:21:39.336Z,13.67
2017-08-21T00:24:07.797Z,13.68
2017-08-21T00:26:36.229Z,13.69
2017-08-21T00:29:05.522Z,13.71
2017-08-21T00:31:34.750Z,13.69
2017-08-21T00:34:03.235Z,13.68
2017-08-21T00:36:31.663Z,13.66
2017-08-21T00:39:00.108Z,13.65
2017-08-21T00:41:28.590Z,13.63
2017-08-21T00:43:57.053Z,13.60
2017-08-21T00:46:25.548Z,13.60
2017-08-21T00:48:54.023Z,13.59
2017-08-21T00:51:22.452Z,13.57
2017-08-21T00:53:50.987Z,13.51
2017-08-21T00:56:19.487Z,13.50
2017-08-21T00:58:48.066Z,13.48
2017-08-21T01:01:16.550Z,13.43
2017-08-21T01:03:45.039Z,13.41
2017-08-21T01:06:13.501Z,13.37
2017-08-21T01:08:41.979Z,13.34
2017-08-21T01:11:10.472Z,13.32
2017-08-21T01:13:38.958Z,13.32
2017-08-21T01:16:07.421Z,13.31
2017-08-21T01:18:35.839Z,13.33
2017-08-21T01:21:04.296Z,13.34
2017-08-21T01:23:32.736Z,13.36
2017-08-21T01:26:01.972Z,13.38
2017-08-21T01:28:30.417Z,13.40
2017-08-21T01:30:59.662Z,13.48
2017-08-21T01:33:28.136Z,13.48
2017-08-21T01:35:56.616Z,13.48
2017-08-21T01:38:25.110Z,13.47
2017-08-21T01:40:53.596Z,13.46
2017-08-21T01:43:22.075Z,13.44
2017-08-21T01:45:50.523Z,13.43
2017-08-21T01:48:19.743Z,13.39
2017-08-21T01:50:48.200Z,13.36
2017-08-21T01:53:17.423Z,13.34
2017-08-21T01:55:46.018Z,13.32
2017-08-21T01:58:14.497Z,13.31
2017-08-21T02:00:42.982Z,13.30
2017-08-21T02:03:11.431Z,13.27
2017-08-21T02:05:40.663Z,13.26
2017-08-21T02:08:09.125Z,13.26
2017-08-21T02:10:37.611Z,13.27
2017-08-21T02:13:06.099Z,13.25
2017-08-21T02:15:34.579Z,13.24
2017-08-21T02:18:03.074Z,13.24
2017-08-21T02:20:31.521Z,13.23
2017-08-21T02:23:00.844Z,13.25
2017-08-21T02:25:29.339Z,13.24
2017-08-21T02:27:57.801Z,13.23
2017-08-21T02:30:26.237Z,13.23
2017-08-21T02:32:54.706Z,13.23
2017-08-21T02:35:23.155Z,13.24
2017-08-21T02:37:51.635Z,13.24
2017-08-21T02:40:20.073Z,13.30
2017-08-21T02:42:48.606Z,13.36
2017-08-21T02:45:17.053Z,13.43
2017-08-21T02:47:46.276Z,13.48
2017-08-21T02:50:14.769Z,13.52
2017-08-21T02:52:43.215Z,13.55
2017-08-21T02:55:12.422Z,13.58
2017-08-21T02:57:40.923Z,13.58
2017-08-21T03:00:09.403Z,13.60
2017-08-21T03:02:37.852Z,13.62
2017-08-21T03:05:07.083Z,13.65
2017-08-21T03:07:35.522Z,13.65
2017-08-21T03:10:03.964Z,13.70
2017-08-21T03:12:32.405Z,13.73
2017-08-21T03:15:01.743Z,13.75
2017-08-21T03:17:30.211Z,13.77
2017-08-21T03:19:58.694Z,13.78
2017-08-21T03:22:27.295Z,13.80
2017-08-21T03:24:55.773Z,13.80
2017-08-21T03:27:24.262Z,13.80
2017-08-21T03:29:52.723Z,13.76
2017-08-21T03:32:21.208Z,13.79
2017-08-21T03:34:49.655Z,13.78
2017-08-21T03:37:18.172Z,13.79
2017-08-21T03:39:46.629Z,13.80
2017-08-21T03:42:15.855Z,13.77
2017-08-21T03:44:44.313Z,13.81
2017-08-21T03:47:13.513Z,13.82
2017-08-21T03:49:42.728Z,13.84
2017-08-21T03:52:11.156Z,13.89
2017-08-21T03:54:39.707Z,13.87
2017-08-21T03:57:08.154Z,13.88
2017-08-21T03:59:37.490Z,13.89
2017-08-21T04:02:05.959Z,13.90
2017-08-21T04:04:34.453Z,13.93
2017-08-21T04:07:02.896Z,13.94
2017-08-21T04:09:32.107Z,13.98
2017-08-21T04:12:00.545Z,14.00
2017-08-21T04:14:28.991Z,14.03
2017-08-21T04:16:57.411Z,14.04
2017-08-21T04:19:25.853Z,14.05
2017-08-21T04:21:54.332Z,14.09
2017-08-21T04:24:22.756Z,14.06
2017-08-21T04:26:51.300Z,14.02
2017-08-21T04:29:19.772Z,14.01
2017-08-21T04:31:48.219Z,13.97
2017-08-21T04:34:17.415Z,13.96
2017-08-21T04:36:45.930Z,13.93
2017-08-21T04:39:14.428Z,13.92
2017-08-21T04:41:42.905Z,13.92
2017-08-21T04:44:11.384Z,13.97
2017-08-21T04:46:39.836Z,13.99
2017-08-21T04:49:09.064Z,14.00
2017-08-21T04:51:37.553Z,14.02
2017-08-21T04:54:06.027Z,14.00
2017-08-21T04:56:34.485Z,14.05
2017-08-21T04:59:03.712Z,14.07
2017-08-21T05:01:32.155Z,14.10
2017-08-21T05:04:01.347Z,14.14
2017-08-21T05:06:29.808Z,14.18
2017-08-21T05:08:58.245Z,14.17
2017-08-21T05:11:26.736Z,14.20
2017-08-21T05:13:55.221Z,14.27
2017-08-21T05:16:23.706Z,14.32
2017-08-21T05:18:52.190Z,14.38
2017-08-21T05:21:20.656Z,14.41
2017-08-21T05:23:49.147Z,14.43
2017-08-21T05:26:17.638Z,14.44
2017-08-21T05:28:46.120Z,14.50
2017-08-21T05:31:14.551Z,14.54
2017-08-21T05:33:43.800Z,14.64
2017-08-21T05:36:12.268Z,14.77
2017-08-21T05:38:40.715Z,14.83
2017-08-21T05:41:09.943Z,14.97
2017-08-21T05:43:38.443Z,15.08
2017-08-21T05:46:06.916Z,15.17
2017-08-21T05:48:35.412Z,15.22
2017-08-21T05:51:03.843Z,15.19
2017-08-21T05:53:33.090Z,15.28
2017-08-21T05:56:01.515Z,15.36
2017-08-21T05:58:30.048Z,15.44
2017-08-21T06:00:58.512Z,15.42
2017-08-21T06:03:27.013Z,15.46
2017-08-21T06:05:55.453Z,15.48
2017-08-21T06:08:24.787Z,15.52
2017-08-21T06:10:53.281Z,15.50
2017-08-21T06:13:21.715Z,15.54
2017-08-21T06:15:50.931Z,15.67
2017-08-21T06:18:20.151Z,15.74
2017-08-21T06:20:48.608Z,15.83
2017-08-21T06:23:17.805Z,15.88
2017-08-21T06:25:47.135Z,15.88
2017-08-21T06:28:15.582Z,15.98
2017-08-21T06:30:44.811Z,15.99
2017-08-21T06:33:13.296Z,16.14
2017-08-21T06:35:41.733Z,16.20
2017-08-21T06:38:10.162Z,16.05
2017-08-21T06:40:38.613Z,16.12
2017-08-21T06:43:07.121Z,16.45
2017-08-21T06:45:35.607Z,16.38
2017-08-21T06:48:04.036Z,16.52
2017-08-21T06:50:32.492Z,16.43
2017-08-21T06:53:00.925Z,16.58
2017-08-21T06:55:29.438Z,16.71
2017-08-21T06:57:57.913Z,16.69
2017-08-21T07:00:26.491Z,16.59
2017-08-21T07:02:54.929Z,16.45
2017-08-21T07:05:23.461Z,16.50
2017-08-21T07:07:52.025Z,16.59
2017-08-21T07:10:20.524Z,16.67
2017-08-21T07:12:49.003Z,16.65
2017-08-21T07:15:17.488Z,16.47
2017-08-21T07:17:45.981Z,16.29
2017-08-21T07:20:14.416Z,16.25
2017-08-21T07:22:43.645Z,16.38
2017-08-21T07:25:12.145Z,16.47
2017-08-21T07:27:40.627Z,16.66
2017-08-21T07:30:09.072Z,16.79
2017-08-21T07:32:38.400Z,17.03
2017-08-21T07:35:06.822Z,17.22
2017-08-21T07:37:35.271Z,17.07
2017-08-21T07:40:03.708Z,17.31
2017-08-21T07:42:32.954Z,17.29
2017-08-21T07:45:01.394Z,17.10
2017-08-21T07:47:30.739Z,17.08
2017-08-21T07:49:59.219Z,17.12
2017-08-21T07:52:27.673Z,17.16
2017-08-21T07:54:56.119Z,17.09
2017-08-21T07:57:24.558Z,17.11
2017-08-21T07:59:53.021Z,17.45
2017-08-21T08:02:21.439Z,17.47
2017-08-21T08:04:49.884Z,17.68
2017-08-21T08:07:18.371Z,17.56
2017-08-21T08:09:46.832Z,17.33
2017-08-21T08:12:16.056Z,17.16
2017-08-21T08:14:44.540Z,17.23
2017-08-21T08:17:13.030Z,17.11
2017-08-21T08:19:41.495Z,17.09
2017-08-21T08:22:09.921Z,17.08
2017-08-21T08:24:38.463Z,17.10
2017-08-21T08:27:06.887Z,17.14
2017-08-21T08:29:35.429Z,17.15
2017-08-21T08:32:03.918Z,17.00
2017-08-21T08:34:32.373Z,17.08
2017-08-21T08:37:00.867Z,17.27
2017-08-21T08:39:29.374Z,17.41
2017-08-21T08:41:57.850Z,17.46
2017-08-21T08:44:26.279Z,17.72
2017-08-21T08:46:54.809Z,17.93
2017-08-21T08:49:23.279Z,18.26
2017-08-21T08:51:51.778Z,18.30
2017-08-21T08:54:20.240Z,18.25
2017-08-21T08:56:48.733Z,18.33
2017-08-21T08:59:17.169Z,18.53
2017-08-21T09:01:45.705Z,18.71
2017-08-21T09:04:14.193Z,19.00
2017-08-21T09:06:42.660Z,18.94
2017-08-21T09:09:11.154Z,18.87
2017-08-21T09:11:39.589Z,18.51
2017-08-21T09:14:08.823Z,18.64
2017-08-21T09:16:38.232Z,18.78
2017-08-21T09:19:06.669Z,18.62
2017-08-21T09:21:35.892Z,18.71
2017-08-21T09:24:04.406Z,19.15
2017-08-21T09:26:32.852Z,19.17
2017-08-21T09:29:01.366Z,19.01
2017-08-21T09:31:29.831Z,19.23
2017-08-21T09:33:58.255Z,19.23
2017-08-21T09:36:26.719Z,19.12
2017-08-21T09:38:55.189Z,19.29
2017-08-21T09:41:23.624Z,18.91
2017-08-21T09:43:52.849Z,18.87
2017-08-21T09:46:21.351Z,18.85
2017-08-21T09:48:49.803Z,19.11
2017-08-21T09:51:18.299Z,19.23
2017-08-21T09:53:46.788Z,19.24
2017-08-21T09:56:15.278Z,19.62
2017-08-21T09:58:43.729Z,19.99
2017-08-21T10:01:12.933Z,19.85
2017-08-21T10:03:41.443Z,20.24
2017-08-21T10:06:09.871Z,20.18
2017-08-21T10:08:38.401Z,20.26
2017-08-21T10:11:06.885Z,20.29
2017-08-21T10:13:35.375Z,20.59
2017-08-21T10:16:36.000Z,20.09
2017-08-21T10:19:04.481Z,20.01
2017-08-21T10:21:32.904Z,19.64
2017-08-21T10:24:01.358Z,19.12
2017-08-21T10:26:29.832Z,19.23
2017-08-21T10:28:58.295Z,19.40
2017-08-21T10:31:26.725Z,19.58
2017-08-21T10:33:55.273Z,19.57
2017-08-21T10:36:23.709Z,20.05
2017-08-21T10:38:52.241Z,20.31
2017-08-21T10:41:20.685Z,20.25
2017-08-21T10:43:49.187Z,20.52
2017-08-21T10:46:17.675Z,20.35
2017-08-21T10:48:46.165Z,20.53
2017-08-21T10:51:14.601Z,20.38
2017-08-21T10:53:43.124Z,19.83
2017-08-21T10:56:11.599Z,19.79
2017-08-21T10:58:40.043Z,19.60
2017-08-21T11:01:08.581Z,19.48
2017-08-21T11:03:37.048Z,19.39
2017-08-21T11:06:05.532Z,19.42
2017-08-21T11:08:33.989Z,19.44
2017-08-21T11:11:02.507Z,19.62
2017-08-21T11:13:30.957Z,20.06
2017-08-21T11:15:59.401Z,20.35
2017-08-21T11:18:27.949Z,20.11
2017-08-21T11:20:56.434Z,20.18
2017-08-21T11:23:24.908Z,20.19
2017-08-21T11:25:53.395Z,20.26
2017-08-21T11:28:21.888Z,20.15
2017-08-21T11:30:50.345Z,20.08
2017-08-21T11:33:18.850Z,19.78
2017-08-21T11:35:47.294Z,19.68
2017-08-21T11:38:16.515Z,19.55
2017-08-21T11:40:44.955Z,19.73
2017-08-21T11:43:13.383Z,20.09
2017-08-21T11:45:41.846Z,20.78
2017-08-21T11:48:10.848Z,20.56
2017-08-21T11:50:39.341Z,20.40
2017-08-21T11:53:07.767Z,20.12
2017-08-21T11:55:36.229Z,20.22
2017-08-21T11:58:04.651Z,20.56
2017-08-21T12:00:33.109Z,20.48
2017-08-21T12:03:01.532Z,20.41
2017-08-21T12:05:30.025Z,20.51
2017-08-21T12:07:58.504Z,20.90
2017-08-21T12:10:26.992Z,20.87
2017-08-21T12:12:55.420Z,20.67
2017-08-21T12:15:23.943Z,20.52
2017-08-21T12:17:52.377Z,20.88
2017-08-21T12:20:20.912Z,20.88
2017-08-21T12:22:49.345Z,20.86
2017-08-21T12:25:17.885Z,20.21
2017-08-21T12:27:46.360Z,19.80
2017-08-21T12:30:14.817Z,19.54
2017-08-21T12:32:43.328Z,19.16
2017-08-21T12:35:11.818Z,19.31
2017-08-21T12:37:40.288Z,19.19
2017-08-21T12:40:08.785Z,19.54
2017-08-21T12:42:37.225Z,19.54
2017-08-21T12:45:05.663Z,19.65
2017-08-21T12:47:34.108Z,19.74
2017-08-21T12:50:02.526Z,20.02
2017-08-21T12:52:31.085Z,20.04
2017-08-21T12:54:59.551Z,20.13
2017-08-21T12:57:28.013Z,19.98
2017-08-21T12:59:56.533Z,19.88
2017-08-21T13:02:24.992Z,19.70
2017-08-21T13:04:53.499Z,19.70
2017-08-21T13:07:21.972Z,19.73
2017-08-21T13:09:50.461Z,19.79
2017-08-21T13:12:18.913Z,19.83
2017-08-21T13:14:47.434Z,20.01
2017-08-21T13:17:15.888Z,20.03
2017-08-21T13:19:44.395Z,19.84
2017-08-21T13:22:12.855Z,20.00
2017-08-21T13:24:41.343Z,20.02
2017-08-21T13:27:09.801Z,20.18
2017-08-21T13:29:38.224Z,20.28
2017-08-21T13:32:06.673Z,20.37
2017-08-21T13:34:35.159Z,20.56
2017-08-21T13:37:03.614Z,20.60
2017-08-21T13:39:32.045Z,20.42
2017-08-21T13:42:00.785Z,20.33
2017-08-21T13:44:29.313Z,20.29
2017-08-21T13:46:57.755Z,20.14
2017-08-21T13:49:26.265Z,19.95
2017-08-21T13:51:54.687Z,19.96
2017-08-21T13:54:23.136Z,19.84
2017-08-21T13:56:51.608Z,20.06
2017-08-21T13:59:20.065Z,19.93
2017-08-21T14:01:48.577Z,20.08
2017-08-21T14:04:17.024Z,20.05
2017-08-21T14:06:45.462Z,19.92
2017-08-21T14:09:13.992Z,19.60
2017-08-21T14:11:42.495Z,19.70
2017-08-21T14:14:10.976Z,19.63
2017-08-21T14:16:39.476Z,19.52
2017-08-21T14:19:07.919Z,19.66
2017-08-21T14:21:36.427Z,19.80
2017-08-21T14:24:04.912Z,19.91
2017-08-21T14:26:33.401Z,20.02
2017-08-21T14:29:01.873Z,19.90
2017-08-21T14:31:30.296Z,19.90
2017-08-21T14:33:58.850Z,20.18
2017-08-21T14:36:27.316Z,20.22
2017-08-21T14:38:55.813Z,20.47
2017-08-21T14:41:24.279Z,20.35
2017-08-21T14:43:52.771Z,20.60
2017-08-21T14:46:21.242Z,20.52
2017-08-21T14:48:49.663Z,20.18
2017-08-21T14:51:18.125Z,20.10
2017-08-21T14:53:46.595Z,20.18
2017-08-21T14:56:15.035Z,20.29
2017-08-21T14:58:43.556Z,20.41
2017-08-21T15:01:12.047Z,20.75
2017-08-21T15:03:40.484Z,20.95
2017-08-21T15:06:09.004Z,20.91
2017-08-21T15:08:37.498Z,20.73
2017-08-21T15:11:05.939Z,20.79
2017-08-21T15:13:34.363Z,20.28
2017-08-21T15:16:02.832Z,20.13
2017-08-21T15:18:31.307Z,20.07
2017-08-21T15:20:59.801Z,20.15
2017-08-21T15:23:28.233Z,20.22
2017-08-21T15:25:56.765Z,20.23
2017-08-21T15:28:25.246Z,20.34
2017-08-21T15:30:53.699Z,20.47
2017-08-21T15:33:22.195Z,20.62
2017-08-21T15:35:50.649Z,20.66
2017-08-21T15:38:19.884Z,20.47
2017-08-21T15:40:48.344Z,20.48
2017-08-21T15:43:16.851Z,20.65
2017-08-21T15:45:45.327Z,20.67
2017-08-21T15:48:13.751Z,20.79
2017-08-21T15:50:42.228Z,20.62
2017-08-21T15:53:10.672Z,20.52
2017-08-21T15:55:39.152Z,20.78
2017-08-21T15:58:07.645Z,20.91
2017-08-21T16:00:36.071Z,20.76
2017-08-21T16:03:04.600Z,20.62
2017-08-21T16:05:33.090Z,20.54
2017-08-21T16:08:01.563Z,20.28
2017-08-21T16:10:30.049Z,20.23
2017-08-21T16:12:58.538Z,20.15
2017-08-21T16:15:26.967Z,19.91
2017-08-21T16:17:55.501Z,19.98
2017-08-21T16:20:23.945Z,20.04
2017-08-21T16:22:52.452Z,19.92
2017-08-21T16:25:20.946Z,20.00
2017-08-21T16:27:49.392Z,19.70
2017-08-21T16:30:17.808Z,19.65
2017-08-21T16:32:46.295Z,19.67
2017-08-21T16:35:14.724Z,19.67
2017-08-21T16:37:43.253Z,19.57
2017-08-21T16:40:11.735Z,19.42
2017-08-21T16:42:40.190Z,19.47
2017-08-21T16:45:08.692Z,19.41
2017-08-21T16:47:37.154Z,19.45
2017-08-21T16:50:05.593Z,19.21
2017-08-21T16:52:34.043Z,19.14
2017-08-21T16:55:02.483Z,18.97
2017-08-21T16:57:30.908Z,19.00
2017-08-21T16:59:59.376Z,19.07
2017-08-21T17:02:27.851Z,19.02
2017-08-21T17:04:56.351Z,19.00
2017-08-21T17:07:24.834Z,18.94
2017-08-21T17:09:53.313Z,18.89
2017-08-21T17:12:21.745Z,18.81
2017-08-21T17:14:50.265Z,18.87
2017-08-21T17:17:18.716Z,18.83
2017-08-21T17:19:47.173Z,18.87
2017-08-21T17:22:15.707Z,18.82
2017-08-21T17:24:44.187Z,18.83
2017-08-21T17:27:12.681Z,18.78
2017-08-21T17:29:41.119Z,18.82
2017-08-21T17:32:09.544Z,18.71
2017-08-21T17:34:37.987Z,18.64
2017-08-21T17:37:06.503Z,18.54
2017-08-21T17:39:35.001Z,18.44
2017-08-21T17:42:03.468Z,18.43
2017-08-21T17:44:32.014Z,18.33
2017-08-21T17:47:00.445Z,18.31
2017-08-21T17:49:28.905Z,18.32
2017-08-21T17:51:57.406Z,18.28
2017-08-21T17:54:25.875Z,18.29
2017-08-21T17:56:54.334Z,18.29
2017-08-21T17:59:22.852Z,18.17
2017-08-21T18:01:51.291Z,18.12
2017-08-21T18:04:19.784Z,18.06
2017-08-21T18:06:48.299Z,18.03
2017-08-21T18:09:16.781Z,17.94
2017-08-21T18:11:45.261Z,17.88
2017-08-21T18:14:13.691Z,17.80
2017-08-21T18:16:42.153Z,17.79
2017-08-21T18:19:10.584Z,17.74
2017-08-21T18:21:39.080Z,17.67
2017-08-21T18:24:07.504Z,17.64
2017-08-21T18:26:36.046Z,17.62
2017-08-21T18:29:04.529Z,17.59
2017-08-21T18:31:32.983Z,17.60
2017-08-21T18:34:01.421Z,17.54
2017-08-21T18:36:29.960Z,17.49
2017-08-21T18:38:58.457Z,17.44
2017-08-21T18:41:26.928Z,17.38
2017-08-21T18:43:55.421Z,17.29
2017-08-21T18:46:23.866Z,17.27
2017-08-21T18:48:52.385Z,17.27
2017-08-21T18:51:20.871Z,17.20
2017-08-21T18:53:49.336Z,17.12
2017-08-21T18:56:17.833Z,17.06
2017-08-21T18:58:46.310Z,17.02
2017-08-21T19:01:14.788Z,16.97
2017-08-21T19:03:43.267Z,16.90
2017-08-21T19:06:11.757Z,16.82
2017-08-21T19:08:40.234Z,16.74
2017-08-21T19:11:08.664Z,16.67
2017-08-21T19:13:37.129Z,16.62
2017-08-21T19:16:05.553Z,16.57
2017-08-21T19:18:34.006Z,16.52
2017-08-21T19:21:02.432Z,16.53
2017-08-21T19:23:30.919Z,16.45
2017-08-21T19:25:59.414Z,16.41
2017-08-21T19:28:27.894Z,16.43
2017-08-21T19:30:56.378Z,16.33
2017-08-21T19:33:24.836Z,16.32
2017-08-21T19:35:54.037Z,16.27
2017-08-21T19:38:22.488Z,16.21
2017-08-21T19:40:51.012Z,16.16
2017-08-21T19:43:19.495Z,16.13
2017-08-21T19:45:47.933Z,16.08
2017-08-21T19:48:17.175Z,15.97
2017-08-21T19:50:45.613Z,15.93
2017-08-21T19:53:14.068Z,15.88
2017-08-21T19:55:42.505Z,15.84
2017-08-21T19:58:11.000Z,15.83
2017-08-21T20:00:39.459Z,15.80
2017-08-21T20:03:07.888Z,15.74
2017-08-21T20:05:36.342Z,15.73
2017-08-21T20:08:04.842Z,15.70
2017-08-21T20:10:33.318Z,15.65
2017-08-21T20:13:01.797Z,15.62
2017-08-21T20:15:30.279Z,15.57
2017-08-21T20:17:58.761Z,15.53
2017-08-21T20:20:27.204Z,15.50
2017-08-21T20:22:55.727Z,15.47
2017-08-21T20:25:24.177Z,15.45
2017-08-21T20:27:52.621Z,15.45
2017-08-21T20:30:21.172Z,15.44
2017-08-21T20:32:49.658Z,15.45
2017-08-21T20:35:18.118Z,15.47
2017-08-21T20:37:46.605Z,15.51
2017-08-21T20:40:15.083Z,15.54
2017-08-21T20:42:43.586Z,15.57
2017-08-21T20:45:12.051Z,15.59
2017-08-21T20:47:40.546Z,15.62
2017-08-21T20:50:08.992Z,15.67
2017-08-21T20:52:37.509Z,15.70
2017-08-21T20:55:06.000Z,15.73
2017-08-21T20:57:34.432Z,15.76
2017-08-21T21:00:02.954Z,15.78
2017-08-21T21:02:31.381Z,15.79
2017-08-21T21:04:59.918Z,15.78
2017-08-21T21:07:28.362Z,15.80
2017-08-21T21:09:56.817Z,15.81
2017-08-21T21:12:25.366Z,15.84
2017-08-21T21:14:53.817Z,15.82
2017-08-21T21:17:22.311Z,15.79
2017-08-21T21:19:50.769Z,15.78
2017-08-21T21:22:19.294Z,15.73
2017-08-21T21:24:47.779Z,15.71
2017-08-21T21:27:16.244Z,15.62
2017-08-21T21:29:44.727Z,15.55
2017-08-21T21:32:13.211Z,15.48
2017-08-21T21:34:41.691Z,15.40
2017-08-21T21:37:10.189Z,15.37
2017-08-21T21:39:38.611Z,15.31
2017-08-21T21:42:07.147Z,15.26
2017-08-21T21:44:35.629Z,15.18
2017-08-21T21:47:04.083Z,15.15
2017-08-21T21:49:32.519Z,15.08
2017-08-21T21:52:01.059Z,15.05
2017-08-21T21:54:29.580Z,14.97
2017-08-21T21:56:58.131Z,14.95
2017-08-21T21:59:26.620Z,14.90
2017-08-21T22:01:55.063Z,14.87
2017-08-21T22:04:23.584Z,14.81
2017-08-21T22:06:52.064Z,14.76
2017-08-21T22:09:20.486Z,14.73
2017-08-21T22:11:49.033Z,14.72
2017-08-21T22:14:17.513Z,14.66
2017-08-21T22:16:46.005Z,14.63
2017-08-21T22:19:14.468Z,14.62
2017-08-21T22:21:42.961Z,14.64
2017-08-21T22:24:11.423Z,14.57
2017-08-21T22:26:39.921Z,14.54
2017-08-21T22:29:08.395Z,14.50
2017-08-21T22:31:36.872Z,14.45
2017-08-21T22:34:05.363Z,14.43
2017-08-21T22:36:33.843Z,14.40
2017-08-21T22:39:02.336Z,14.36
2017-08-21T22:41:30.768Z,14.32
2017-08-21T22:43:59.299Z,14.30
2017-08-21T22:46:27.772Z,14.28
2017-08-21T22:48:56.216Z,14.26
2017-08-21T22:51:24.731Z,14.22
2017-08-21T22:53:53.216Z,14.22
2017-08-21T22:56:21.635Z,14.16
2017-08-21T22:58:50.094Z,14.12
2017-08-21T23:04:10.047Z,14.10
2017-08-21T23:06:38.568Z,14.08
2017-08-21T23:09:07.048Z,14.07
2017-08-21T23:11:35.472Z,14.03
2017-08-21T23:14:04.016Z,14.00
2017-08-21T23:16:32.502Z,13.95
2017-08-21T23:19:00.971Z,13.94
2017-08-21T23:21:29.420Z,13.94
2017-08-21T23:23:57.849Z,13.93
2017-08-21T23:26:26.324Z,13.89
2017-08-21T23:28:54.809Z,13.88
2017-08-21T23:31:23.294Z,13.85
2017-08-21T23:33:51.764Z,13.81
2017-08-21T23:36:20.207Z,13.80
2017-08-21T23:38:48.624Z,13.73
2017-08-21T23:41:17.067Z,13.73
2017-08-21T23:43:45.599Z,13.72
2017-08-21T23:46:14.067Z,13.67
2017-08-21T23:48:42.487Z,13.68
2017-08-21T23:51:10.926Z,13.66
2017-08-21T23:53:39.408Z,13.65
2017-08-21T23:56:07.871Z,13.60
2017-08-21T23:58:37.083Z,13.53
